Time;durP1;ratioP1;P1;durP2;ratioP2;P2;SDS_P1;SDS_P2;PMS_P1;PMS_P2;Temp;Humidity;BMP_temperature;BMP_pressure;BME280_temperature;BME280_humidity;BME280_pressure;Samples;Min_cycle;Max_cycle;Signal;HPM_P1;HPM_P2
2021/10/28 00:12:12;;;;;;;23.30;14.90;;;5.00;99.90;;;;;;5071485;28;20529;-65
2021/10/28 00:12:51;;;;;;;15.73;12.67;;;4.80;99.90;;;;;;5071458;28;20518;-65
2021/10/28 00:15:26;;;;;;;15.13;13.33;;;4.70;99.90;;;;;;5071159;28;20463;-65
2021/10/28 00:18:10;;;;;;;17.43;14.33;;;4.70;99.90;;;;;;5070935;28;20442;-65
2021/10/28 00:20:38;;;;;;;20.67;14.80;;;4.80;99.90;;;;;;5071206;28;20487;-66
2021/10/28 00:23:06;;;;;;;20.53;16.10;;;4.80;99.90;;;;;;5071448;28;20899;-65
2021/10/28 00:25:34;;;;;;;19.60;15.13;;;4.80;99.90;;;;;;5071286;28;20471;-65
2021/10/28 00:28:03;;;;;;;20.03;16.20;;;4.80;99.90;;;;;;5070872;28;20493;-65
2021/10/28 00:30:30;;;;;;;25.10;18.57;;;4.80;99.90;;;;;;5071396;28;20451;-65
2021/10/28 00:32:58;;;;;;;24.43;15.40;;;4.80;99.90;;;;;;5071045;28;20453;-65
2021/10/28 00:35:25;;;;;;;19.90;16.47;;;4.80;99.90;;;;;;5071128;28;20467;-65
2021/10/28 00:37:52;;;;;;;19.63;16.63;;;4.80;99.90;;;;;;5070512;28;20473;-65
2021/10/28 00:40:19;;;;;;;24.27;16.90;;;4.70;99.90;;;;;;5070859;28;20503;-65
2021/10/28 00:42:46;;;;;;;20.07;15.30;;;4.60;99.90;;;;;;5070544;28;20443;-65
2021/10/28 00:45:13;;;;;;;24.30;17.53;;;4.60;99.90;;;;;;5070622;28;20462;-65
2021/10/28 00:47:41;;;;;;;25.90;18.87;;;4.50;99.90;;;;;;5070416;28;20501;-65
2021/10/28 00:50:10;;;;;;;29.23;18.80;;;4.50;99.90;;;;;;5070719;28;20534;-65
2021/10/28 00:52:38;;;;;;;26.23;19.80;;;4.50;99.90;;;;;;5070784;28;20963;-65
2021/10/28 00:55:06;;;;;;;32.30;21.90;;;4.70;99.90;;;;;;5070487;28;20976;-65
2021/10/28 00:57:34;;;;;;;27.97;17.90;;;4.80;99.90;;;;;;5070335;28;20443;-65
2021/10/28 01:00:02;;;;;;;21.97;18.03;;;4.80;99.90;;;;;;5070615;28;20467;-65
2021/10/28 01:02:29;;;;;;;22.50;18.00;;;4.80;99.90;;;;;;5070791;28;20940;-65
2021/10/28 01:04:56;;;;;;;24.30;17.57;;;4.80;99.90;;;;;;5070714;28;20467;-65
2021/10/28 01:07:24;;;;;;;28.70;19.00;;;4.70;99.90;;;;;;5070365;28;20799;-65
2021/10/28 01:09:51;;;;;;;25.03;18.80;;;4.80;99.90;;;;;;5069747;28;20439;-65
2021/10/28 01:12:19;;;;;;;25.57;18.13;;;4.80;99.90;;;;;;5070493;28;20445;-65
2021/10/28 01:14:47;;;;;;;27.43;17.70;;;4.80;99.90;;;;;;5070270;28;20463;-65
2021/10/28 01:17:14;;;;;;;33.17;22.00;;;4.70;99.90;;;;;;5069941;28;20502;-65
2021/10/28 01:19:43;;;;;;;29.77;20.60;;;4.70;99.90;;;;;;5069742;28;20443;-64
2021/10/28 01:22:11;;;;;;;33.67;20.97;;;4.80;99.90;;;;;;5070059;28;20855;-64
2021/10/28 01:24:39;;;;;;;30.40;22.77;;;4.80;99.90;;;;;;5069744;28;20470;-65
2021/10/28 01:27:09;;;;;;;33.07;22.10;;;4.80;99.90;;;;;;5069876;28;20703;-65
2021/10/28 01:29:36;;;;;;;32.23;23.53;;;4.80;99.90;;;;;;5070312;28;20523;-65
2021/10/28 01:32:05;;;;;;;36.93;23.23;;;4.70;99.90;;;;;;5070033;28;20441;-65
2021/10/28 01:34:31;;;;;;;27.50;19.80;;;4.70;99.90;;;;;;5069692;28;20447;-65
2021/10/28 01:36:59;;;;;;;34.60;21.10;;;4.70;99.90;;;;;;5068887;28;20531;-65
2021/10/28 01:39:27;;;;;;;29.27;20.23;;;4.70;99.90;;;;;;5069975;28;20500;-65
2021/10/28 01:41:54;;;;;;;25.00;19.10;;;4.70;99.90;;;;;;5068910;28;20497;-65
2021/10/28 01:44:22;;;;;;;30.87;20.70;;;4.60;99.90;;;;;;5069735;28;20439;-65
2021/10/28 01:46:49;;;;;;;28.77;20.30;;;4.50;99.90;;;;;;5069707;28;20482;-65
2021/10/28 01:49:23;;;;;;;31.00;21.50;;;4.50;99.90;;;;;;5070061;28;20462;-65
2021/10/28 01:51:50;;;;;;;31.03;20.50;;;4.50;99.90;;;;;;5069606;28;20951;-65
2021/10/28 01:54:17;;;;;;;30.30;22.50;;;4.50;99.90;;;;;;5069751;28;20447;-65
2021/10/28 01:56:45;;;;;;;33.13;23.30;;;4.50;99.90;;;;;;5069222;28;20996;-65
2021/10/28 01:59:12;;;;;;;39.40;24.47;;;4.50;99.90;;;;;;5069916;28;20459;-65
2021/10/28 02:01:39;;;;;;;35.93;22.77;;;4.70;99.90;;;;;;5069830;28;20471;-65
2021/10/28 02:04:06;;;;;;;31.10;24.70;;;4.60;99.90;;;;;;5070053;28;20621;-65
2021/10/28 02:06:33;;;;;;;33.07;22.53;;;4.50;99.90;;;;;;5069452;28;20550;-65
2021/10/28 02:09:00;;;;;;;29.07;20.60;;;4.50;99.90;;;;;;5070057;28;20440;-65
2021/10/28 02:11:27;;;;;;;36.73;24.03;;;4.50;99.90;;;;;;5069855;28;20514;-65
2021/10/28 02:13:58;;;;;;;40.23;24.50;;;4.40;99.90;;;;;;5070149;28;20447;-65
2021/10/28 02:16:29;;;;;;;35.97;23.93;;;4.50;99.90;;;;;;5069789;28;20463;-65
2021/10/28 02:18:56;;;;;;;37.20;22.90;;;4.40;99.90;;;;;;5070025;28;20451;-65
2021/10/28 02:21:23;;;;;;;40.67;25.70;;;4.40;99.90;;;;;;5071599;28;20481;-65
2021/10/28 02:23:50;;;;;;;33.57;22.70;;;4.40;99.90;;;;;;5073710;28;20450;-65
2021/10/28 02:26:16;;;;;;;28.97;21.47;;;4.30;99.90;;;;;;5073670;28;20471;-65
2021/10/28 02:28:43;;;;;;;37.17;24.90;;;4.30;99.90;;;;;;5073768;28;20453;-65
2021/10/28 02:31:12;;;;;;;31.27;21.83;;;4.30;99.90;;;;;;5073604;28;20816;-65
2021/10/28 02:33:38;;;;;;;35.30;23.10;;;4.30;99.90;;;;;;5073237;28;20866;-65
2021/10/28 02:36:05;;;;;;;41.80;25.97;;;4.40;99.90;;;;;;5073454;28;20467;-65
2021/10/28 02:38:32;;;;;;;39.50;24.20;;;4.40;99.90;;;;;;5072826;28;20449;-65
2021/10/28 02:40:59;;;;;;;42.77;27.37;;;4.50;99.90;;;;;;5073440;28;20481;-65
2021/10/28 02:43:26;;;;;;;42.30;25.40;;;4.50;99.90;;;;;;5073298;28;20450;-65
2021/10/28 02:45:53;;;;;;;41.53;26.53;;;4.60;99.90;;;;;;5073128;28;20459;-65
2021/10/28 02:48:21;;;;;;;43.00;27.17;;;4.70;99.90;;;;;;5072707;28;20447;-65
2021/10/28 02:50:48;;;;;;;45.30;28.67;;;4.70;99.90;;;;;;5072991;28;20443;-65
2021/10/28 02:53:15;;;;;;;40.80;27.10;;;4.70;99.90;;;;;;5072933;28;20827;-65
2021/10/28 02:55:42;;;;;;;39.20;25.53;;;4.70;99.90;;;;;;5072852;28;20474;-65
2021/10/28 02:58:08;;;;;;;46.43;29.40;;;4.70;99.90;;;;;;5072890;28;20447;-65
2021/10/28 03:00:36;;;;;;;42.40;25.80;;;4.70;99.90;;;;;;5072771;28;20952;-65
2021/10/28 03:03:03;;;;;;;43.53;24.20;;;4.60;99.90;;;;;;5072860;28;20876;-65
2021/10/28 03:05:31;;;;;;;36.93;23.43;;;4.70;99.90;;;;;;5072158;28;20458;-65
2021/10/28 03:07:58;;;;;;;43.43;25.73;;;4.70;99.90;;;;;;5072633;28;20474;-65
2021/10/28 03:10:25;;;;;;;34.90;24.77;;;4.60;99.90;;;;;;5072839;28;20457;-65
2021/10/28 03:12:53;;;;;;;38.77;26.17;;;4.60;99.90;;;;;;5072769;28;20442;-65
2021/10/28 03:15:21;;;;;;;36.77;23.47;;;4.60;99.90;;;;;;5072276;28;20566;-66
2021/10/28 03:26:07;;;;;;;28.50;20.77;;;4.40;99.90;;;;;;5072215;28;20450;-65
2021/10/28 03:28:34;;;;;;;33.13;22.20;;;4.30;99.90;;;;;;5072079;28;20439;-64
2021/10/28 03:31:01;;;;;;;38.97;24.17;;;4.20;99.90;;;;;;5072266;28;20472;-64
2021/10/28 03:33:28;;;;;;;39.27;24.03;;;4.20;99.90;;;;;;5072146;28;20948;-65
2021/10/28 03:35:56;;;;;;;36.37;23.47;;;4.20;99.90;;;;;;5072327;28;20863;-65
2021/10/28 03:38:24;;;;;;;36.20;24.43;;;4.20;99.90;;;;;;5071992;28;20534;-64
2021/10/28 03:46:52;;;;;;;33.47;23.53;;;4.20;99.90;;;;;;5071766;28;20465;-65
2021/10/28 04:17:23;;;;;;;39.30;23.63;;;4.00;99.90;;;;;;5071374;28;20796;-65
2021/10/28 04:30:48;;;;;;;33.63;23.70;;;3.80;99.90;;;;;;5071149;28;20426;-65
2021/10/28 04:33:15;;;;;;;36.30;23.70;;;3.90;99.90;;;;;;5071109;28;20446;-65
2021/10/28 04:35:42;;;;;;;36.70;24.43;;;3.90;99.90;;;;;;5071021;28;20463;-65
2021/10/28 04:38:10;;;;;;;35.43;24.37;;;4.00;99.90;;;;;;5070932;28;20475;-65
2021/10/28 04:40:38;;;;;;;36.50;24.10;;;3.90;99.90;;;;;;5070821;28;20443;-65
2021/10/28 04:43:05;;;;;;;38.40;23.90;;;3.90;99.90;;;;;;5070653;28;20479;-66
2021/10/28 04:45:32;;;;;;;34.77;24.60;;;3.80;99.90;;;;;;5070515;28;20473;-70
2021/10/28 04:47:59;;;;;;;33.03;21.00;;;3.90;99.90;;;;;;5071078;28;20443;-65
2021/10/28 04:50:25;;;;;;;31.33;21.53;;;3.80;99.90;;;;;;5064604;28;20450;-64
2021/10/28 04:52:52;;;;;;;31.80;22.30;;;3.80;99.90;;;;;;5060782;28;20954;-65
2021/10/28 04:55:19;;;;;;;40.93;25.47;;;3.80;99.90;;;;;;5060487;28;20550;-65
2021/10/28 04:57:47;;;;;;;42.37;26.87;;;3.80;99.90;;;;;;5066786;28;20439;-65
2021/10/28 05:00:14;;;;;;;41.43;27.53;;;3.90;99.90;;;;;;5070701;28;21051;-64
2021/10/28 05:02:41;;;;;;;47.53;26.93;;;3.90;99.90;;;;;;5070507;28;20561;-65
2021/10/28 05:05:08;;;;;;;43.73;27.70;;;4.00;99.90;;;;;;5070570;28;20562;-65
2021/10/28 05:07:35;;;;;;;50.50;29.83;;;4.10;99.90;;;;;;5053327;28;20470;-64
2021/10/28 05:10:03;;;;;;;47.20;27.87;;;4.20;99.90;;;;;;5049070;28;20444;-65
2021/10/28 05:12:30;;;;;;;47.57;31.00;;;4.30;99.90;;;;;;5058440;28;20451;-65
2021/10/28 05:14:58;;;;;;;51.80;31.97;;;4.30;99.90;;;;;;5069201;28;20508;-64
2021/10/28 05:17:25;;;;;;;48.17;29.63;;;4.30;99.90;;;;;;5064866;28;20530;-65
2021/10/28 05:19:52;;;;;;;49.20;30.53;;;4.40;99.90;;;;;;5068931;28;20530;-65
2021/10/28 05:22:20;;;;;;;44.53;30.40;;;4.40;99.90;;;;;;5069752;28;20471;-64
2021/10/28 05:24:47;;;;;;;53.93;31.53;;;4.40;99.90;;;;;;5070068;28;20912;-64
2021/10/28 05:27:14;;;;;;;53.43;33.20;;;4.40;99.90;;;;;;5069923;28;20447;-64
2021/10/28 05:29:41;;;;;;;54.97;33.93;;;4.40;99.90;;;;;;5070310;28;20474;-64
2021/10/28 05:32:09;;;;;;;55.23;33.50;;;4.40;99.90;;;;;;5070313;28;20447;-65
2021/10/28 05:34:37;;;;;;;53.90;32.13;;;4.40;99.90;;;;;;5070134;28;20855;-65
2021/10/28 05:37:05;;;;;;;51.27;32.70;;;4.40;99.90;;;;;;5069840;28;20463;-65
2021/10/28 05:39:31;;;;;;;54.10;33.33;;;4.50;99.90;;;;;;5070073;28;20471;-65
2021/10/28 05:41:58;;;;;;;59.57;33.97;;;4.50;99.90;;;;;;5070260;28;20571;-65
2021/10/28 05:44:25;;;;;;;50.33;31.20;;;4.50;99.90;;;;;;5070129;28;20831;-65
2021/10/28 05:46:52;;;;;;;49.87;32.13;;;4.40;99.90;;;;;;5069774;28;20447;-65
2021/10/28 05:49:21;;;;;;;47.00;31.80;;;4.40;99.90;;;;;;5069768;28;20446;-65
2021/10/28 05:51:48;;;;;;;48.10;30.77;;;4.50;99.90;;;;;;5068453;28;20454;-65
2021/10/28 05:54:15;;;;;;;60.47;32.47;;;4.50;99.90;;;;;;5067877;28;20470;-65
2021/10/28 05:56:42;;;;;;;52.07;30.87;;;4.40;99.90;;;;;;5067502;28;20457;-65
2021/10/28 05:59:09;;;;;;;61.87;32.47;;;4.30;99.90;;;;;;5067948;28;20455;-65
2021/10/28 06:01:36;;;;;;;69.80;33.00;;;4.30;99.90;;;;;;5068797;28;20841;-64
2021/10/28 06:04:02;;;;;;;51.47;31.50;;;4.30;99.90;;;;;;5068958;28;20534;-64
2021/10/28 06:06:31;;;;;;;57.27;32.00;;;4.40;99.90;;;;;;5069045;28;20553;-64
2021/10/28 06:08:58;;;;;;;47.43;31.90;;;4.40;99.90;;;;;;5069434;28;20455;-65
2021/10/28 06:11:24;;;;;;;50.10;30.30;;;4.30;99.90;;;;;;5069492;28;21003;-65
2021/10/28 06:13:52;;;;;;;52.27;30.50;;;4.30;99.90;;;;;;5069920;28;20534;-65
2021/10/28 06:16:19;;;;;;;57.53;31.50;;;4.30;99.90;;;;;;5069213;28;20835;-64
2021/10/28 06:18:49;;;;;;;57.40;32.50;;;4.30;99.90;;;;;;5069510;28;20535;-65
2021/10/28 06:21:19;;;;;;;54.13;31.83;;;4.30;99.90;;;;;;5069205;28;20478;-65
2021/10/28 06:23:47;;;;;;;45.73;28.43;;;4.40;99.90;;;;;;5069431;28;20478;-65
2021/10/28 06:26:15;;;;;;;48.53;27.63;;;4.40;99.90;;;;;;5069027;28;20465;-65
2021/10/28 06:28:42;;;;;;;45.90;27.67;;;4.50;99.90;;;;;;5069145;28;20479;-65
2021/10/28 06:31:08;;;;;;;43.70;28.23;;;4.60;99.90;;;;;;5069310;28;20445;-64
2021/10/28 06:33:37;;;;;;;39.80;28.47;;;4.60;99.90;;;;;;5069037;28;20475;-64
2021/10/28 06:36:04;;;;;;;44.13;27.90;;;4.60;99.90;;;;;;5068894;28;20474;-64
2021/10/28 06:38:33;;;;;;;38.63;26.83;;;4.60;99.90;;;;;;5068824;28;20443;-64
2021/10/28 06:41:03;;;;;;;39.40;26.57;;;4.70;99.90;;;;;;5069111;28;20479;-65
2021/10/28 06:43:31;;;;;;;42.20;25.93;;;4.70;99.90;;;;;;5069130;28;20479;-65
2021/10/28 06:45:58;;;;;;;42.47;28.17;;;4.70;99.90;;;;;;5068953;28;20553;-63
2021/10/28 06:48:26;;;;;;;42.57;27.97;;;4.70;99.90;;;;;;5068489;28;20466;-63
2021/10/28 06:50:55;;;;;;;38.33;27.70;;;4.70;99.90;;;;;;5069270;28;20447;-64
2021/10/28 06:53:24;;;;;;;41.23;27.83;;;4.80;99.90;;;;;;5068891;28;20447;-63
2021/10/28 06:55:58;;;;;;;37.20;27.00;;;4.80;99.90;;;;;;5069146;28;20463;-64
2021/10/28 07:03:56;;;;;;;33.73;23.93;;;4.90;99.90;;;;;;5068854;28;20474;-64
2021/10/28 07:06:25;;;;;;;36.73;25.10;;;4.90;99.90;;;;;;5068884;28;20471;-63
2021/10/28 07:08:55;;;;;;;34.87;22.63;;;5.00;99.90;;;;;;5072521;28;20450;-63
2021/10/28 07:11:25;;;;;;;38.37;25.90;;;5.00;99.90;;;;;;5072461;28;20447;-64
2021/10/28 07:13:55;;;;;;;44.33;26.53;;;5.10;99.90;;;;;;5072672;28;20872;-64
2021/10/28 07:16:32;;;;;;;38.97;25.20;;;5.10;99.90;;;;;;5072154;28;20549;-63
2021/10/28 07:19:09;;;;;;;34.70;26.10;;;5.20;99.90;;;;;;5072384;28;20821;-64
2021/10/28 07:27:29;;;;;;;31.17;22.63;;;5.40;99.90;;;;;;5071607;28;20485;-64
2021/10/28 07:30:24;;;;;;;34.77;24.50;;;5.40;99.90;;;;;;5069903;28;20800;-64
2021/10/28 08:17:06;;;;;;;25.97;21.07;;;7.10;99.90;;;;;;5051386;28;20992;-64
2021/10/28 08:19:44;;;;;;;26.73;20.30;;;7.20;99.90;;;;;;5051531;28;20514;-64
2021/10/28 08:22:17;;;;;;;24.87;21.00;;;7.20;99.90;;;;;;5050892;28;20444;-64
2021/10/28 08:30:14;;;;;;;25.20;21.90;;;7.50;99.90;;;;;;5060391;28;20411;-65
2021/10/28 08:32:42;;;;;;;35.70;22.80;;;7.70;99.90;;;;;;5065401;28;20428;-64
2021/10/28 08:35:10;;;;;;;24.83;21.40;;;7.80;99.90;;;;;;5071186;28;20541;-65
2021/10/28 08:37:43;;;;;;;24.73;18.80;;;7.80;99.90;;;;;;5070624;28;20526;-64
2021/10/28 08:40:11;;;;;;;26.00;20.57;;;7.90;99.90;;;;;;5057384;28;20444;-65
2021/10/28 08:42:39;;;;;;;23.70;18.30;;;8.00;99.90;;;;;;5050911;28;20476;-64
2021/10/28 08:45:07;;;;;;;23.97;19.50;;;8.10;99.90;;;;;;5050599;28;20962;-64
2021/10/28 08:47:34;;;;;;;22.70;19.47;;;8.20;99.90;;;;;;5050718;28;20436;-64
2021/10/28 08:50:04;;;;;;;25.13;18.90;;;8.30;99.90;;;;;;5051049;28;20531;-64
2021/10/28 08:52:50;;;;;;;22.47;18.53;;;8.40;99.90;;;;;;5050689;28;20789;-65
2021/10/28 08:55:25;;;;;;;25.93;20.33;;;8.50;99.90;;;;;;5051068;28;20491;-64
2021/10/28 08:58:08;;;;;;;24.17;19.50;;;8.60;99.90;;;;;;5050399;28;20820;-64
2021/10/28 09:26:25;;;;;;;21.13;18.90;;;10.60;99.90;;;;;;5049912;28;20957;-64
2021/10/28 09:29:10;;;;;;;19.20;16.30;;;10.80;99.90;;;;;;5050015;28;20526;-65
2021/10/28 09:31:39;;;;;;;18.07;15.70;;;11.30;99.90;;;;;;5049856;28;20535;-65
2021/10/28 09:34:23;;;;;;;20.13;15.20;;;11.50;99.90;;;;;;5050070;28;20440;-65
2021/10/28 09:45:38;;;;;;;16.07;14.40;;;12.80;99.90;;;;;;5049830;28;20447;-65
2021/10/28 09:48:30;;;;;;;15.70;13.90;;;13.20;99.90;;;;;;5049692;28;20468;-65
2021/10/28 09:50:59;;;;;;;16.77;14.67;;;13.60;99.90;;;;;;5049982;28;20455;-65
2021/10/28 09:53:30;;;;;;;15.60;13.73;;;13.90;99.90;;;;;;5049777;28;20498;-65
2021/10/28 09:58:44;;;;;;;16.63;15.03;;;14.50;99.90;;;;;;5049704;28;20470;-65
2021/10/28 10:01:33;;;;;;;17.37;15.50;;;14.90;99.90;;;;;;5049935;28;20929;-66
2021/10/28 10:04:03;;;;;;;17.50;15.70;;;15.40;99.90;;;;;;5049548;28;21055;-65
2021/10/28 10:06:36;;;;;;;15.87;14.20;;;15.80;99.90;;;;;;5049316;28;20456;-65
2021/10/28 10:09:03;;;;;;;15.80;14.27;;;16.10;99.90;;;;;;5049862;28;20436;-66
2021/10/28 10:11:30;;;;;;;15.77;14.13;;;16.60;99.90;;;;;;5049890;28;21015;-65
2021/10/28 10:13:59;;;;;;;15.77;14.10;;;16.90;99.90;;;;;;5049985;28;20523;-65
2021/10/28 10:16:26;;;;;;;15.03;13.57;;;17.10;99.90;;;;;;5049376;28;20456;-66
2021/10/28 10:18:53;;;;;;;17.40;15.60;;;17.50;99.90;;;;;;5049624;28;20455;-64
2021/10/28 10:21:30;;;;;;;17.40;13.57;;;17.70;99.90;;;;;;5049624;28;20471;-62
2021/10/28 10:24:10;;;;;;;15.97;14.40;;;17.80;99.90;;;;;;5049450;28;20514;-63
2021/10/28 11:28:58;;;;;;;18.23;16.43;;;20.80;98.20;;;;;;5051850;28;20509;-64
2021/10/28 12:44:54;;;;;;;17.13;15.33;;;15.20;99.90;;;;;;5056328;28;21141;-63
2021/10/28 12:47:36;;;;;;;17.77;15.90;;;15.20;99.90;;;;;;5048261;28;20450;-63
2021/10/28 13:04:24;;;;;;;19.80;16.03;;;15.00;99.90;;;;;;5053772;28;20614;-63
2021/10/28 13:07:02;;;;;;;15.90;14.20;;;15.00;99.90;;;;;;5052778;28;20444;-64
2021/10/28 13:35:20;;;;;;;19.93;16.40;;;14.80;99.90;;;;;;5032229;28;20439;-64
2021/10/28 13:38:03;;;;;;;16.63;14.37;;;14.80;99.90;;;;;;5055827;28;20440;-63
2021/10/28 13:48:57;;;;;;;18.60;15.40;;;14.80;99.90;;;;;;5051149;28;20528;-64
2021/10/28 13:57:14;;;;;;;18.40;15.40;;;14.70;99.90;;;;;;5053867;28;20580;-64
2021/10/28 14:38:38;;;;;;;19.23;15.80;;;14.70;99.90;;;;;;5053150;28;20428;-63
2021/10/28 15:03:30;;;;;;;15.47;13.80;;;14.40;99.90;;;;;;5016680;28;20455;-65
2021/10/28 15:28:03;;;;;;;18.40;15.50;;;14.30;99.90;;;;;;5071485;28;20431;-63
2021/10/28 15:30:52;;;;;;;16.93;15.13;;;14.20;99.90;;;;;;5072768;28;20500;-63
2021/10/28 15:36:22;;;;;;;20.77;17.57;;;13.90;99.90;;;;;;5072171;28;20443;-63
2021/10/28 15:38:57;;;;;;;19.97;16.70;;;13.80;99.90;;;;;;5072191;28;20447;-62
2021/10/28 15:58:51;;;;;;;19.90;15.93;;;13.00;99.90;;;;;;5074008;28;21010;-65
2021/10/28 16:23:13;;;;;;;26.47;18.40;;;11.40;99.90;;;;;;5084799;28;20433;-64
2021/10/28 16:25:40;;;;;;;26.07;19.27;;;11.30;99.90;;;;;;5084324;28;20470;-64
2021/10/28 16:28:07;;;;;;;21.40;17.73;;;11.30;99.90;;;;;;5084420;28;21011;-64
2021/10/28 16:30:36;;;;;;;24.37;19.50;;;11.20;99.90;;;;;;5084493;28;20435;-64
2021/10/28 16:33:03;;;;;;;28.40;19.33;;;11.00;99.90;;;;;;5085190;28;20489;-64
2021/10/28 16:35:30;;;;;;;24.20;19.30;;;10.90;99.90;;;;;;5083761;28;20467;-63
2021/10/28 16:37:57;;;;;;;22.10;18.77;;;10.80;99.90;;;;;;5083712;28;20588;-64
2021/10/28 16:40:24;;;;;;;25.00;18.70;;;10.70;99.90;;;;;;5084659;28;20984;-64
2021/10/28 16:42:51;;;;;;;24.37;20.37;;;10.70;99.90;;;;;;5084972;28;20564;-64
2021/10/28 16:45:17;;;;;;;25.33;20.13;;;10.60;99.90;;;;;;5085049;28;20458;-64
2021/10/28 16:47:45;;;;;;;22.47;19.10;;;10.40;99.90;;;;;;5084837;28;20472;-64
2021/10/28 16:50:14;;;;;;;26.17;20.47;;;10.30;99.90;;;;;;5085347;28;21007;-63
2021/10/28 16:52:40;;;;;;;29.00;21.30;;;10.20;99.90;;;;;;5083911;28;20545;-65
2021/10/28 16:55:09;;;;;;;29.70;23.70;;;10.10;99.90;;;;;;5083795;28;21204;-65
2021/10/28 16:57:35;;;;;;;36.13;23.70;;;10.10;99.90;;;;;;5083334;28;20490;-63
2021/10/28 17:00:03;;;;;;;31.37;23.50;;;10.10;99.90;;;;;;5084555;28;20557;-64
2021/10/28 17:02:30;;;;;;;29.30;22.33;;;10.10;99.90;;;;;;5084963;28;20449;-64
2021/10/28 17:04:58;;;;;;;31.20;22.77;;;10.00;99.90;;;;;;5084664;28;20595;-65
2021/10/28 17:07:25;;;;;;;30.57;23.30;;;9.90;99.90;;;;;;5076984;28;20960;-65
2021/10/28 17:09:53;;;;;;;31.50;24.30;;;9.80;99.90;;;;;;5057845;28;21124;-64
2021/10/28 17:12:21;;;;;;;28.97;22.90;;;9.70;99.90;;;;;;5071150;28;20805;-64
2021/10/28 17:14:49;;;;;;;27.80;21.83;;;9.60;99.90;;;;;;5070373;28;20474;-65
2021/10/28 17:17:16;;;;;;;25.33;20.80;;;9.60;99.90;;;;;;5071047;28;20929;-63
2021/10/28 17:19:45;;;;;;;28.47;20.90;;;9.50;99.90;;;;;;5071051;28;20451;-65
2021/10/28 17:22:14;;;;;;;29.70;22.50;;;9.30;99.90;;;;;;5069604;28;20453;-64
2021/10/28 17:24:45;;;;;;;29.37;22.37;;;9.20;99.90;;;;;;5071086;28;20972;-65
2021/10/28 17:27:13;;;;;;;26.30;19.83;;;9.10;99.90;;;;;;5061356;28;20467;-64
2021/10/28 17:29:40;;;;;;;26.30;22.23;;;9.00;99.90;;;;;;5060100;28;20440;-65
2021/10/28 17:32:07;;;;;;;29.60;22.20;;;8.90;99.90;;;;;;5065922;28;20439;-65
2021/10/28 17:34:34;;;;;;;28.97;23.57;;;8.80;99.90;;;;;;5070474;28;20455;-63
2021/10/28 17:37:02;;;;;;;29.60;23.67;;;8.80;99.90;;;;;;5050207;28;20480;-64
2021/10/28 17:39:30;;;;;;;29.13;22.03;;;8.80;99.90;;;;;;5052121;28;20817;-62
2021/10/28 17:41:59;;;;;;;28.20;21.20;;;8.80;99.90;;;;;;5051766;28;20436;-63
2021/10/28 17:44:36;;;;;;;30.20;23.70;;;8.70;99.90;;;;;;5049868;28;20455;-64
2021/10/28 17:47:03;;;;;;;29.83;22.87;;;8.60;99.90;;;;;;5051093;28;20448;-64
2021/10/28 17:49:30;;;;;;;41.07;24.10;;;8.60;99.90;;;;;;5051270;28;20527;-64
2021/10/28 17:51:57;;;;;;;29.63;22.70;;;8.60;99.90;;;;;;5051775;28;20454;-64
2021/10/28 17:54:23;;;;;;;29.37;22.20;;;8.60;99.90;;;;;;5051569;28;20440;-63
2021/10/28 17:56:52;;;;;;;28.23;21.53;;;8.50;99.90;;;;;;5051134;28;20506;-63
2021/10/28 17:59:19;;;;;;;26.70;21.13;;;8.40;99.90;;;;;;5051200;28;20447;-65
2021/10/28 18:01:45;;;;;;;28.23;21.20;;;8.30;99.90;;;;;;5051574;28;20957;-64
2021/10/28 18:04:12;;;;;;;34.20;22.63;;;8.20;99.90;;;;;;5051779;28;20452;-63
2021/10/28 18:06:39;;;;;;;31.43;22.10;;;8.10;99.90;;;;;;5050826;28;20466;-64
2021/10/28 18:09:06;;;;;;;33.10;23.20;;;8.00;99.90;;;;;;5051262;28;20454;-63
2021/10/28 18:11:33;;;;;;;27.17;22.00;;;7.90;99.90;;;;;;5059660;28;20454;-63
2021/10/28 18:14:02;;;;;;;30.20;21.57;;;7.90;99.90;;;;;;5064171;28;20559;-64
2021/10/28 18:16:30;;;;;;;28.47;21.23;;;7.80;99.90;;;;;;5061087;28;20577;-63
2021/10/28 18:18:59;;;;;;;28.37;21.20;;;7.80;99.90;;;;;;5058817;28;20478;-63
2021/10/28 18:21:27;;;;;;;26.93;21.37;;;7.90;99.90;;;;;;5055956;28;20526;-63
2021/10/28 18:23:56;;;;;;;28.40;22.13;;;7.80;99.90;;;;;;5048965;28;20535;-63
2021/10/28 18:26:24;;;;;;;26.53;20.70;;;7.80;99.90;;;;;;5048819;28;20478;-64
2021/10/28 18:28:52;;;;;;;27.33;21.20;;;7.90;99.90;;;;;;5049197;28;20448;-62
2021/10/28 18:31:20;;;;;;;27.70;19.40;;;7.90;99.90;;;;;;5049430;28;20460;-63
2021/10/28 18:33:48;;;;;;;28.83;21.13;;;7.90;99.90;;;;;;5048789;28;20542;-64
2021/10/28 18:36:16;;;;;;;24.63;19.30;;;7.90;99.90;;;;;;5048864;28;20985;-64
2021/10/28 18:38:45;;;;;;;26.87;19.87;;;7.80;99.90;;;;;;5049073;28;20579;-65
2021/10/28 18:41:12;;;;;;;27.60;20.33;;;7.70;99.90;;;;;;5051901;28;21249;-64
2021/10/28 18:43:39;;;;;;;25.80;19.80;;;7.60;99.90;;;;;;5060544;28;20452;-62
2021/10/28 18:46:06;;;;;;;23.50;18.33;;;7.60;99.90;;;;;;5057270;28;20479;-64
2021/10/28 18:48:34;;;;;;;22.83;17.87;;;7.50;99.90;;;;;;5055998;28;20930;-63
2021/10/28 18:51:02;;;;;;;28.23;21.87;;;7.40;99.90;;;;;;5047920;28;20479;-64
2021/10/28 18:53:29;;;;;;;33.27;22.60;;;7.20;99.90;;;;;;5048679;28;20452;-62
2021/10/28 18:55:57;;;;;;;29.73;21.90;;;7.10;99.90;;;;;;5048152;28;20491;-64
2021/10/28 18:58:24;;;;;;;33.73;23.30;;;7.20;99.90;;;;;;5048162;28;20487;-63
2021/10/28 19:00:51;;;;;;;32.57;22.20;;;7.30;99.90;;;;;;5048769;28;20448;-62
2021/10/28 19:03:19;;;;;;;31.87;22.10;;;7.40;99.90;;;;;;5048413;28;20533;-63
2021/10/28 19:05:52;;;;;;;28.20;20.57;;;7.40;99.90;;;;;;5048311;28;20484;-61
2021/10/28 19:08:19;;;;;;;28.37;21.13;;;7.30;99.90;;;;;;5048201;28;20476;-63
2021/10/28 19:10:46;;;;;;;29.53;20.93;;;7.30;99.90;;;;;;5048477;28;20821;-63
2021/10/28 19:13:13;;;;;;;28.67;20.80;;;7.20;99.90;;;;;;5058171;28;20541;-64
2021/10/28 19:15:40;;;;;;;27.43;21.67;;;7.10;99.90;;;;;;5057502;28;20464;-64
2021/10/28 19:18:07;;;;;;;26.00;19.70;;;7.10;99.90;;;;;;5050197;28;20483;-63
2021/10/28 19:20:34;;;;;;;21.03;17.27;;;7.00;99.90;;;;;;5051322;28;20500;-64
2021/10/28 19:23:05;;;;;;;23.87;17.43;;;6.90;99.90;;;;;;5067237;28;20451;-65
2021/10/28 19:25:32;;;;;;;27.33;18.30;;;6.90;99.90;;;;;;5066932;28;20984;-63
2021/10/28 19:28:00;;;;;;;20.80;16.63;;;6.90;99.90;;;;;;5065928;28;20897;-63
2021/10/28 19:30:30;;;;;;;19.73;16.67;;;6.80;99.90;;;;;;5066583;28;20703;-63
2021/10/28 19:33:00;;;;;;;22.93;16.70;;;6.70;99.90;;;;;;5059570;28;20453;-63
2021/10/28 19:35:28;;;;;;;19.87;16.00;;;6.60;99.90;;;;;;5054798;28;20525;-63
2021/10/28 19:38:02;;;;;;;21.40;16.73;;;6.60;99.90;;;;;;5052218;28;20515;-64
2021/10/28 19:46:10;;;;;;;22.77;16.63;;;6.40;99.90;;;;;;5056957;28;20455;-64
2021/10/28 19:48:38;;;;;;;22.87;17.87;;;6.40;99.90;;;;;;5055654;28;20508;-63
2021/10/28 19:51:05;;;;;;;22.70;18.27;;;6.40;99.90;;;;;;5057269;28;20470;-64
2021/10/28 19:53:32;;;;;;;26.03;19.20;;;6.30;99.90;;;;;;5053741;28;21263;-64
2021/10/28 19:56:10;;;;;;;25.13;19.60;;;6.30;99.90;;;;;;5052533;28;20849;-64
2021/10/28 19:58:37;;;;;;;25.50;19.07;;;6.30;99.90;;;;;;5051320;28;20480;-63
2021/10/28 20:01:09;;;;;;;26.63;19.07;;;6.40;99.90;;;;;;5058190;28;20449;-63
2021/10/28 20:04:06;;;;;;;25.27;18.67;;;6.40;99.90;;;;;;5046263;28;20718;-62
2021/10/28 20:15:01;;;;;;;28.30;19.43;;;6.40;99.90;;;;;;5054740;28;20492;-64
2021/10/28 20:20:13;;;;;;;24.57;17.77;;;6.30;99.90;;;;;;5016982;28;20861;-67
2021/10/28 20:22:42;;;;;;;21.17;17.13;;;6.30;99.90;;;;;;5058212;28;20535;-69
2021/10/28 20:25:11;;;;;;;19.67;15.53;;;6.30;99.90;;;;;;5046386;28;20555;-67
2021/10/28 20:27:40;;;;;;;21.23;16.80;;;6.20;99.90;;;;;;5050640;28;20454;-67
2021/10/28 20:30:10;;;;;;;24.27;18.43;;;6.20;99.90;;;;;;5048247;28;20444;-67
2021/10/28 20:32:37;;;;;;;24.50;18.43;;;6.20;99.90;;;;;;5052010;28;20459;-67
2021/10/28 20:35:09;;;;;;;26.83;18.10;;;6.20;99.90;;;;;;5050179;28;20982;-68
2021/10/28 20:37:37;;;;;;;27.37;17.93;;;6.20;99.90;;;;;;5059481;28;20536;-68
2021/10/28 20:40:05;;;;;;;24.80;17.80;;;6.20;99.90;;;;;;5052748;28;20538;-68
2021/10/28 20:42:37;;;;;;;28.53;19.00;;;6.20;99.90;;;;;;5052208;28;20853;-68
2021/10/28 20:45:09;;;;;;;20.10;16.60;;;6.10;99.90;;;;;;5057533;28;20470;-69
2021/10/28 20:47:38;;;;;;;24.30;16.90;;;6.10;99.90;;;;;;5059816;28;21063;-68
2021/10/28 20:50:07;;;;;;;26.63;18.83;;;6.00;99.90;;;;;;5051613;28;20492;-68
2021/10/28 20:52:35;;;;;;;24.27;19.20;;;6.10;99.90;;;;;;5051700;28;20443;-68
2021/10/28 20:55:02;;;;;;;26.07;18.23;;;6.00;99.90;;;;;;5059000;28;20471;-68
2021/10/28 20:57:30;;;;;;;22.30;17.50;;;6.10;99.90;;;;;;5055709;28;20491;-69